sensor_id;sensor_type;location;lat;lon;timestamp;P1;durP1;ratioP1;P2;durP2;ratioP2
5221;SDS011;2630;52.036;8.514;2023-06-26T00:00:39;73.27;;;6.07;;
5221;SDS011;2630;52.036;8.514;2023-06-26T00:03:04;75.87;;;6.30;;
5221;SDS011;2630;52.036;8.514;2023-06-26T00:05:30;73.40;;;5.63;;
5221;SDS011;2630;52.036;8.514;2023-06-26T00:07:55;73.00;;;5.70;;
5221;SDS011;2630;52.036;8.514;2023-06-26T00:10:21;73.53;;;6.23;;
5221;SDS011;2630;52.036;8.514;2023-06-26T00:12:47;82.03;;;6.10;;
5221;SDS011;2630;52.036;8.514;2023-06-26T00:15:13;73.20;;;5.27;;
5221;SDS011;2630;52.036;8.514;2023-06-26T00:17:38;73.20;;;5.97;;
5221;SDS011;2630;52.036;8.514;2023-06-26T00:20:05;73.30;;;5.83;;
5221;SDS011;2630;52.036;8.514;2023-06-26T00:22:31;72.87;;;5.97;;
5221;SDS011;2630;52.036;8.514;2023-06-26T00:24:56;96.53;;;7.07;;
5221;SDS011;2630;52.036;8.514;2023-06-26T00:27:22;90.33;;;6.60;;
5221;SDS011;2630;52.036;8.514;2023-06-26T00:29:47;73.90;;;5.87;;
5221;SDS011;2630;52.036;8.514;2023-06-26T00:32:13;73.10;;;5.43;;
5221;SDS011;2630;52.036;8.514;2023-06-26T00:34:39;73.17;;;5.57;;
5221;SDS011;2630;52.036;8.514;2023-06-26T00:37:04;72.70;;;5.33;;
5221;SDS011;2630;52.036;8.514;2023-06-26T00:39:30;77.20;;;5.50;;
5221;SDS011;2630;52.036;8.514;2023-06-26T00:41:55;76.00;;;5.97;;
5221;SDS011;2630;52.036;8.514;2023-06-26T00:44:21;73.40;;;6.10;;
5221;SDS011;2630;52.036;8.514;2023-06-26T00:46:47;86.70;;;6.73;;
5221;SDS011;2630;52.036;8.514;2023-06-26T00:49:13;73.33;;;6.20;;
5221;SDS011;2630;52.036;8.514;2023-06-26T00:51:39;73.30;;;5.87;;
5221;SDS011;2630;52.036;8.514;2023-06-26T00:54:05;75.20;;;5.60;;
5221;SDS011;2630;52.036;8.514;2023-06-26T00:56:31;72.80;;;5.83;;
5221;SDS011;2630;52.036;8.514;2023-06-26T00:58:57;73.80;;;7.37;;
5221;SDS011;2630;52.036;8.514;2023-06-26T01:01:23;81.03;;;5.63;;
5221;SDS011;2630;52.036;8.514;2023-06-26T01:03:50;73.77;;;5.37;;
5221;SDS011;2630;52.036;8.514;2023-06-26T01:06:17;73.20;;;5.43;;
5221;SDS011;2630;52.036;8.514;2023-06-26T01:08:45;97.37;;;7.60;;
5221;SDS011;2630;52.036;8.514;2023-06-26T01:11:11;73.07;;;5.97;;
5221;SDS011;2630;52.036;8.514;2023-06-26T01:13:38;72.97;;;5.23;;
5221;SDS011;2630;52.036;8.514;2023-06-26T01:16:06;84.13;;;6.50;;
5221;SDS011;2630;52.036;8.514;2023-06-26T01:18:32;73.10;;;5.60;;
5221;SDS011;2630;52.036;8.514;2023-06-26T01:20:59;74.70;;;6.10;;
5221;SDS011;2630;52.036;8.514;2023-06-26T01:23:30;72.70;;;5.23;;
5221;SDS011;2630;52.036;8.514;2023-06-26T01:28:43;73.00;;;5.93;;
5221;SDS011;2630;52.036;8.514;2023-06-26T01:31:13;75.53;;;5.87;;
5221;SDS011;2630;52.036;8.514;2023-06-26T01:33:40;75.20;;;7.43;;
5221;SDS011;2630;52.036;8.514;2023-06-26T01:36:06;73.00;;;6.17;;
5221;SDS011;2630;52.036;8.514;2023-06-26T01:38:32;73.33;;;6.43;;
5221;SDS011;2630;52.036;8.514;2023-06-26T01:40:59;72.47;;;6.20;;
5221;SDS011;2630;52.036;8.514;2023-06-26T01:46:05;98.07;;;7.30;;
5221;SDS011;2630;52.036;8.514;2023-06-26T01:48:38;73.07;;;5.57;;
5221;SDS011;2630;52.036;8.514;2023-06-26T01:51:14;73.10;;;6.07;;
5221;SDS011;2630;52.036;8.514;2023-06-26T01:53:47;73.50;;;5.87;;
5221;SDS011;2630;52.036;8.514;2023-06-26T01:56:18;72.43;;;6.33;;
5221;SDS011;2630;52.036;8.514;2023-06-26T01:58:46;73.50;;;6.13;;
5221;SDS011;2630;52.036;8.514;2023-06-26T02:01:13;73.10;;;6.23;;
5221;SDS011;2630;52.036;8.514;2023-06-26T02:03:38;72.07;;;6.10;;
5221;SDS011;2630;52.036;8.514;2023-06-26T02:06:04;73.60;;;5.53;;
5221;SDS011;2630;52.036;8.514;2023-06-26T02:08:29;78.07;;;6.27;;
5221;SDS011;2630;52.036;8.514;2023-06-26T02:10:55;72.63;;;5.97;;
5221;SDS011;2630;52.036;8.514;2023-06-26T02:13:20;72.93;;;5.97;;
5221;SDS011;2630;52.036;8.514;2023-06-26T02:15:46;81.90;;;6.17;;
5221;SDS011;2630;52.036;8.514;2023-06-26T02:18:12;73.00;;;6.60;;
5221;SDS011;2630;52.036;8.514;2023-06-26T02:20:37;76.57;;;5.80;;
5221;SDS011;2630;52.036;8.514;2023-06-26T02:23:04;72.87;;;6.20;;
5221;SDS011;2630;52.036;8.514;2023-06-26T02:25:29;72.70;;;5.97;;
5221;SDS011;2630;52.036;8.514;2023-06-26T02:27:55;72.90;;;6.33;;
5221;SDS011;2630;52.036;8.514;2023-06-26T02:30:20;73.20;;;6.07;;
5221;SDS011;2630;52.036;8.514;2023-06-26T02:32:46;72.77;;;6.17;;
5221;SDS011;2630;52.036;8.514;2023-06-26T02:35:11;71.97;;;5.87;;
5221;SDS011;2630;52.036;8.514;2023-06-26T02:37:37;72.57;;;6.17;;
5221;SDS011;2630;52.036;8.514;2023-06-26T02:40:03;75.77;;;5.83;;
5221;SDS011;2630;52.036;8.514;2023-06-26T02:42:29;77.40;;;6.03;;
5221;SDS011;2630;52.036;8.514;2023-06-26T02:44:56;73.70;;;6.00;;
5221;SDS011;2630;52.036;8.514;2023-06-26T02:47:22;78.40;;;5.80;;
5221;SDS011;2630;52.036;8.514;2023-06-26T02:49:47;75.57;;;6.43;;
5221;SDS011;2630;52.036;8.514;2023-06-26T02:52:13;73.47;;;6.30;;
5221;SDS011;2630;52.036;8.514;2023-06-26T02:54:38;72.77;;;5.77;;
5221;SDS011;2630;52.036;8.514;2023-06-26T02:57:04;73.10;;;6.07;;
5221;SDS011;2630;52.036;8.514;2023-06-26T02:59:29;72.73;;;6.20;;
5221;SDS011;2630;52.036;8.514;2023-06-26T03:01:55;76.23;;;5.73;;
5221;SDS011;2630;52.036;8.514;2023-06-26T03:04:21;73.20;;;5.97;;
5221;SDS011;2630;52.036;8.514;2023-06-26T03:06:46;74.33;;;6.43;;
5221;SDS011;2630;52.036;8.514;2023-06-26T03:09:12;72.07;;;6.17;;
5221;SDS011;2630;52.036;8.514;2023-06-26T03:11:38;73.53;;;6.07;;
5221;SDS011;2630;52.036;8.514;2023-06-26T03:14:03;72.73;;;6.20;;
5221;SDS011;2630;52.036;8.514;2023-06-26T03:16:29;90.93;;;7.20;;
5221;SDS011;2630;52.036;8.514;2023-06-26T03:18:54;75.73;;;5.97;;
5221;SDS011;2630;52.036;8.514;2023-06-26T03:21:20;72.83;;;6.13;;
5221;SDS011;2630;52.036;8.514;2023-06-26T03:23:45;72.93;;;5.43;;
5221;SDS011;2630;52.036;8.514;2023-06-26T03:26:11;72.40;;;5.67;;
5221;SDS011;2630;52.036;8.514;2023-06-26T03:28:39;72.57;;;5.53;;
5221;SDS011;2630;52.036;8.514;2023-06-26T03:31:05;72.90;;;6.17;;
5221;SDS011;2630;52.036;8.514;2023-06-26T03:33:30;96.90;;;7.60;;
5221;SDS011;2630;52.036;8.514;2023-06-26T03:35:56;97.00;;;6.90;;
5221;SDS011;2630;52.036;8.514;2023-06-26T03:38:22;72.70;;;6.20;;
5221;SDS011;2630;52.036;8.514;2023-06-26T03:40:49;73.27;;;6.93;;
5221;SDS011;2630;52.036;8.514;2023-06-26T03:43:14;72.90;;;5.97;;
5221;SDS011;2630;52.036;8.514;2023-06-26T03:45:40;72.77;;;5.70;;
5221;SDS011;2630;52.036;8.514;2023-06-26T03:48:05;72.30;;;5.47;;
5221;SDS011;2630;52.036;8.514;2023-06-26T03:50:33;73.50;;;7.10;;
5221;SDS011;2630;52.036;8.514;2023-06-26T03:52:58;74.67;;;5.87;;
5221;SDS011;2630;52.036;8.514;2023-06-26T03:55:24;73.17;;;6.33;;
5221;SDS011;2630;52.036;8.514;2023-06-26T03:57:49;73.73;;;7.63;;
5221;SDS011;2630;52.036;8.514;2023-06-26T04:00:15;73.20;;;6.30;;
5221;SDS011;2630;52.036;8.514;2023-06-26T04:02:41;72.80;;;5.80;;
5221;SDS011;2630;52.036;8.514;2023-06-26T04:05:07;73.10;;;6.67;;
5221;SDS011;2630;52.036;8.514;2023-06-26T04:07:33;73.13;;;6.70;;
5221;SDS011;2630;52.036;8.514;2023-06-26T04:09:59;74.93;;;7.30;;
5221;SDS011;2630;52.036;8.514;2023-06-26T04:12:25;73.27;;;6.73;;
5221;SDS011;2630;52.036;8.514;2023-06-26T04:14:51;73.30;;;6.97;;
5221;SDS011;2630;52.036;8.514;2023-06-26T04:17:17;83.40;;;7.40;;
5221;SDS011;2630;52.036;8.514;2023-06-26T04:19:42;73.40;;;7.17;;
5221;SDS011;2630;52.036;8.514;2023-06-26T04:22:08;73.00;;;6.23;;
5221;SDS011;2630;52.036;8.514;2023-06-26T04:24:33;72.73;;;6.23;;
5221;SDS011;2630;52.036;8.514;2023-06-26T04:26:59;73.37;;;6.67;;
5221;SDS011;2630;52.036;8.514;2023-06-26T04:29:27;73.10;;;5.97;;
5221;SDS011;2630;52.036;8.514;2023-06-26T04:31:53;78.60;;;6.80;;
5221;SDS011;2630;52.036;8.514;2023-06-26T04:34:24;72.70;;;6.70;;
5221;SDS011;2630;52.036;8.514;2023-06-26T04:36:50;87.40;;;7.30;;
5221;SDS011;2630;52.036;8.514;2023-06-26T04:39:16;72.60;;;5.97;;
5221;SDS011;2630;52.036;8.514;2023-06-26T04:41:42;72.90;;;6.17;;
5221;SDS011;2630;52.036;8.514;2023-06-26T04:44:09;72.57;;;6.47;;
5221;SDS011;2630;52.036;8.514;2023-06-26T04:46:36;75.50;;;6.07;;
5221;SDS011;2630;52.036;8.514;2023-06-26T04:49:03;78.30;;;6.63;;
5221;SDS011;2630;52.036;8.514;2023-06-26T04:51:29;76.27;;;6.43;;
5221;SDS011;2630;52.036;8.514;2023-06-26T04:53:54;72.87;;;6.00;;
5221;SDS011;2630;52.036;8.514;2023-06-26T04:56:20;72.80;;;5.53;;
5221;SDS011;2630;52.036;8.514;2023-06-26T04:58:45;74.00;;;6.03;;
5221;SDS011;2630;52.036;8.514;2023-06-26T05:01:11;85.90;;;6.30;;
5221;SDS011;2630;52.036;8.514;2023-06-26T05:03:38;72.97;;;6.50;;
5221;SDS011;2630;52.036;8.514;2023-06-26T05:06:04;83.80;;;6.80;;
5221;SDS011;2630;52.036;8.514;2023-06-26T05:08:30;72.80;;;5.67;;
5221;SDS011;2630;52.036;8.514;2023-06-26T05:10:56;73.00;;;5.83;;
5221;SDS011;2630;52.036;8.514;2023-06-26T05:13:23;77.37;;;5.97;;
5221;SDS011;2630;52.036;8.514;2023-06-26T05:15:49;80.30;;;6.67;;
5221;SDS011;2630;52.036;8.514;2023-06-26T05:18:14;73.20;;;6.40;;
5221;SDS011;2630;52.036;8.514;2023-06-26T05:20:40;74.60;;;6.37;;
5221;SDS011;2630;52.036;8.514;2023-06-26T05:23:06;72.90;;;6.33;;
5221;SDS011;2630;52.036;8.514;2023-06-26T05:25:32;75.57;;;5.77;;
5221;SDS011;2630;52.036;8.514;2023-06-26T05:28:01;73.00;;;6.20;;
5221;SDS011;2630;52.036;8.514;2023-06-26T05:30:27;72.87;;;5.80;;
5221;SDS011;2630;52.036;8.514;2023-06-26T05:32:53;72.83;;;6.03;;
5221;SDS011;2630;52.036;8.514;2023-06-26T05:35:22;73.07;;;6.13;;
5221;SDS011;2630;52.036;8.514;2023-06-26T05:37:48;85.53;;;7.20;;
5221;SDS011;2630;52.036;8.514;2023-06-26T05:40:15;73.33;;;7.40;;
5221;SDS011;2630;52.036;8.514;2023-06-26T05:42:42;73.40;;;6.77;;
5221;SDS011;2630;52.036;8.514;2023-06-26T05:45:08;74.57;;;6.13;;
5221;SDS011;2630;52.036;8.514;2023-06-26T05:47:34;72.97;;;6.33;;
5221;SDS011;2630;52.036;8.514;2023-06-26T05:50:00;73.03;;;6.67;;
5221;SDS011;2630;52.036;8.514;2023-06-26T05:52:26;75.70;;;6.10;;
5221;SDS011;2630;52.036;8.514;2023-06-26T05:54:52;73.70;;;7.27;;
5221;SDS011;2630;52.036;8.514;2023-06-26T05:57:19;74.30;;;6.43;;
5221;SDS011;2630;52.036;8.514;2023-06-26T05:59:46;81.00;;;7.13;;
5221;SDS011;2630;52.036;8.514;2023-06-26T06:02:12;104.60;;;8.37;;
5221;SDS011;2630;52.036;8.514;2023-06-26T06:04:38;81.80;;;7.13;;
5221;SDS011;2630;52.036;8.514;2023-06-26T06:07:04;78.73;;;6.77;;
5221;SDS011;2630;52.036;8.514;2023-06-26T06:09:30;74.37;;;6.40;;
5221;SDS011;2630;52.036;8.514;2023-06-26T06:11:56;79.00;;;6.63;;
5221;SDS011;2630;52.036;8.514;2023-06-26T06:14:21;94.10;;;7.83;;
5221;SDS011;2630;52.036;8.514;2023-06-26T06:16:47;94.30;;;7.60;;
5221;SDS011;2630;52.036;8.514;2023-06-26T06:19:12;88.50;;;7.87;;
5221;SDS011;2630;52.036;8.514;2023-06-26T06:21:38;93.30;;;8.00;;
5221;SDS011;2630;52.036;8.514;2023-06-26T06:24:04;77.97;;;7.40;;
5221;SDS011;2630;52.036;8.514;2023-06-26T06:26:31;103.57;;;9.40;;
5221;SDS011;2630;52.036;8.514;2023-06-26T06:28:57;82.20;;;8.17;;
5221;SDS011;2630;52.036;8.514;2023-06-26T06:31:22;85.00;;;9.10;;
5221;SDS011;2630;52.036;8.514;2023-06-26T06:33:48;73.30;;;7.40;;
5221;SDS011;2630;52.036;8.514;2023-06-26T06:36:14;84.13;;;6.80;;
5221;SDS011;2630;52.036;8.514;2023-06-26T06:38:42;80.63;;;7.63;;
5221;SDS011;2630;52.036;8.514;2023-06-26T06:41:08;110.40;;;9.03;;
5221;SDS011;2630;52.036;8.514;2023-06-26T06:43:34;82.70;;;7.70;;
5221;SDS011;2630;52.036;8.514;2023-06-26T06:46:01;99.33;;;8.13;;
5221;SDS011;2630;52.036;8.514;2023-06-26T06:48:27;73.57;;;7.47;;
5221;SDS011;2630;52.036;8.514;2023-06-26T06:50:53;76.00;;;7.23;;
5221;SDS011;2630;52.036;8.514;2023-06-26T06:53:19;93.30;;;8.67;;
5221;SDS011;2630;52.036;8.514;2023-06-26T06:55:45;112.83;;;9.07;;
5221;SDS011;2630;52.036;8.514;2023-06-26T06:58:11;73.60;;;7.70;;
5221;SDS011;2630;52.036;8.514;2023-06-26T07:00:37;97.07;;;7.80;;
5221;SDS011;2630;52.036;8.514;2023-06-26T07:03:03;89.07;;;7.47;;
5221;SDS011;2630;52.036;8.514;2023-06-26T07:05:29;90.10;;;8.37;;
5221;SDS011;2630;52.036;8.514;2023-06-26T07:07:55;73.60;;;6.93;;
5221;SDS011;2630;52.036;8.514;2023-06-26T07:10:21;82.03;;;6.60;;
5221;SDS011;2630;52.036;8.514;2023-06-26T07:12:47;82.53;;;7.23;;
5221;SDS011;2630;52.036;8.514;2023-06-26T07:15:13;73.30;;;6.67;;
5221;SDS011;2630;52.036;8.514;2023-06-26T07:17:39;81.63;;;6.90;;
5221;SDS011;2630;52.036;8.514;2023-06-26T07:20:05;78.97;;;6.70;;
5221;SDS011;2630;52.036;8.514;2023-06-26T07:22:33;79.50;;;6.80;;
5221;SDS011;2630;52.036;8.514;2023-06-26T07:24:59;89.23;;;7.80;;
5221;SDS011;2630;52.036;8.514;2023-06-26T07:27:25;82.10;;;7.77;;
5221;SDS011;2630;52.036;8.514;2023-06-26T07:29:51;86.30;;;7.50;;
5221;SDS011;2630;52.036;8.514;2023-06-26T07:32:17;87.97;;;8.27;;
5221;SDS011;2630;52.036;8.514;2023-06-26T07:34:43;82.03;;;7.53;;
5221;SDS011;2630;52.036;8.514;2023-06-26T07:37:08;80.57;;;8.90;;
5221;SDS011;2630;52.036;8.514;2023-06-26T07:39:34;94.47;;;8.10;;
5221;SDS011;2630;52.036;8.514;2023-06-26T07:42:00;78.27;;;7.23;;
5221;SDS011;2630;52.036;8.514;2023-06-26T07:44:26;74.70;;;6.93;;
5221;SDS011;2630;52.036;8.514;2023-06-26T07:46:52;73.60;;;7.73;;
5221;SDS011;2630;52.036;8.514;2023-06-26T07:49:18;111.87;;;8.50;;
5221;SDS011;2630;52.036;8.514;2023-06-26T07:51:44;87.90;;;8.80;;
5221;SDS011;2630;52.036;8.514;2023-06-26T07:54:10;92.47;;;8.60;;
5221;SDS011;2630;52.036;8.514;2023-06-26T07:56:52;73.87;;;7.13;;
5221;SDS011;2630;52.036;8.514;2023-06-26T07:59:19;93.93;;;10.60;;
5221;SDS011;2630;52.036;8.514;2023-06-26T08:01:47;73.47;;;7.03;;
5221;SDS011;2630;52.036;8.514;2023-06-26T08:04:12;76.37;;;6.57;;
5221;SDS011;2630;52.036;8.514;2023-06-26T08:06:38;79.50;;;7.40;;
5221;SDS011;2630;52.036;8.514;2023-06-26T08:09:05;79.47;;;7.47;;
5221;SDS011;2630;52.036;8.514;2023-06-26T08:11:32;83.53;;;7.70;;
5221;SDS011;2630;52.036;8.514;2023-06-26T08:13:58;75.97;;;6.90;;
5221;SDS011;2630;52.036;8.514;2023-06-26T08:16:24;76.40;;;7.20;;
5221;SDS011;2630;52.036;8.514;2023-06-26T08:18:50;92.33;;;7.70;;
5221;SDS011;2630;52.036;8.514;2023-06-26T08:21:16;87.63;;;7.50;;
5221;SDS011;2630;52.036;8.514;2023-06-26T08:23:42;114.00;;;8.13;;
5221;SDS011;2630;52.036;8.514;2023-06-26T08:26:08;76.40;;;6.93;;
5221;SDS011;2630;52.036;8.514;2023-06-26T08:28:34;84.03;;;7.83;;
5221;SDS011;2630;52.036;8.514;2023-06-26T08:31:00;73.60;;;6.77;;
5221;SDS011;2630;52.036;8.514;2023-06-26T08:33:26;88.93;;;7.73;;
5221;SDS011;2630;52.036;8.514;2023-06-26T08:35:52;107.77;;;8.43;;
5221;SDS011;2630;52.036;8.514;2023-06-26T08:38:18;77.73;;;6.77;;
5221;SDS011;2630;52.036;8.514;2023-06-26T08:40:46;73.60;;;6.53;;
5221;SDS011;2630;52.036;8.514;2023-06-26T08:43:12;72.60;;;6.33;;
5221;SDS011;2630;52.036;8.514;2023-06-26T08:45:38;74.67;;;6.90;;
5221;SDS011;2630;52.036;8.514;2023-06-26T08:48:05;77.93;;;6.43;;
5221;SDS011;2630;52.036;8.514;2023-06-26T08:50:33;83.70;;;7.40;;
5221;SDS011;2630;52.036;8.514;2023-06-26T08:56:03;72.57;;;6.63;;
5221;SDS011;2630;52.036;8.514;2023-06-26T08:58:29;75.80;;;7.17;;
5221;SDS011;2630;52.036;8.514;2023-06-26T09:00:55;75.90;;;6.57;;
5221;SDS011;2630;52.036;8.514;2023-06-26T09:03:21;87.43;;;10.03;;
5221;SDS011;2630;52.036;8.514;2023-06-26T09:05:47;85.50;;;9.07;;
5221;SDS011;2630;52.036;8.514;2023-06-26T09:08:13;80.20;;;8.47;;
5221;SDS011;2630;52.036;8.514;2023-06-26T09:10:39;86.23;;;9.63;;
5221;SDS011;2630;52.036;8.514;2023-06-26T09:13:05;77.00;;;8.97;;
5221;SDS011;2630;52.036;8.514;2023-06-26T09:15:53;77.80;;;9.20;;
5221;SDS011;2630;52.036;8.514;2023-06-26T09:18:18;89.13;;;10.03;;
5221;SDS011;2630;52.036;8.514;2023-06-26T09:20:46;80.77;;;9.10;;
5221;SDS011;2630;52.036;8.514;2023-06-26T09:23:12;82.60;;;9.67;;
5221;SDS011;2630;52.036;8.514;2023-06-26T09:25:39;83.40;;;8.83;;
5221;SDS011;2630;52.036;8.514;2023-06-26T09:28:06;79.93;;;8.83;;
5221;SDS011;2630;52.036;8.514;2023-06-26T09:30:32;79.73;;;8.40;;
5221;SDS011;2630;52.036;8.514;2023-06-26T09:33:12;73.40;;;6.20;;
5221;SDS011;2630;52.036;8.514;2023-06-26T09:35:39;87.33;;;7.40;;
5221;SDS011;2630;52.036;8.514;2023-06-26T09:38:05;78.90;;;6.70;;
5221;SDS011;2630;52.036;8.514;2023-06-26T09:40:31;73.27;;;6.50;;
5221;SDS011;2630;52.036;8.514;2023-06-26T09:43:05;73.30;;;6.57;;
5221;SDS011;2630;52.036;8.514;2023-06-26T09:45:35;73.60;;;7.20;;
5221;SDS011;2630;52.036;8.514;2023-06-26T09:48:04;76.30;;;6.60;;
5221;SDS011;2630;52.036;8.514;2023-06-26T09:50:32;76.50;;;7.23;;
5221;SDS011;2630;52.036;8.514;2023-06-26T09:53:07;73.50;;;7.03;;
5221;SDS011;2630;52.036;8.514;2023-06-26T09:55:34;74.00;;;7.63;;
5221;SDS011;2630;52.036;8.514;2023-06-26T09:58:05;78.13;;;7.60;;
5221;SDS011;2630;52.036;8.514;2023-06-26T10:00:31;75.50;;;7.40;;
5221;SDS011;2630;52.036;8.514;2023-06-26T10:02:57;73.90;;;7.13;;
5221;SDS011;2630;52.036;8.514;2023-06-26T10:05:26;79.70;;;7.33;;
5221;SDS011;2630;52.036;8.514;2023-06-26T10:07:52;82.83;;;7.87;;
5221;SDS011;2630;52.036;8.514;2023-06-26T10:10:19;73.70;;;7.63;;
5221;SDS011;2630;52.036;8.514;2023-06-26T10:12:48;88.07;;;9.20;;
5221;SDS011;2630;52.036;8.514;2023-06-26T10:15:16;78.37;;;8.97;;
5221;SDS011;2630;52.036;8.514;2023-06-26T10:17:42;77.40;;;8.67;;
5221;SDS011;2630;52.036;8.514;2023-06-26T10:20:10;76.30;;;8.80;;
5221;SDS011;2630;52.036;8.514;2023-06-26T10:22:39;77.30;;;6.40;;
5221;SDS011;2630;52.036;8.514;2023-06-26T10:25:09;76.30;;;7.07;;
5221;SDS011;2630;52.036;8.514;2023-06-26T10:27:38;78.47;;;6.43;;
5221;SDS011;2630;52.036;8.514;2023-06-26T10:30:14;76.07;;;6.63;;
5221;SDS011;2630;52.036;8.514;2023-06-26T10:32:44;78.20;;;8.33;;
5221;SDS011;2630;52.036;8.514;2023-06-26T10:35:11;77.27;;;8.33;;
5221;SDS011;2630;52.036;8.514;2023-06-26T10:37:41;76.97;;;7.50;;
5221;SDS011;2630;52.036;8.514;2023-06-26T10:40:08;79.03;;;6.83;;
5221;SDS011;2630;52.036;8.514;2023-06-26T10:42:35;74.07;;;7.80;;
5221;SDS011;2630;52.036;8.514;2023-06-26T10:45:20;73.33;;;7.47;;
5221;SDS011;2630;52.036;8.514;2023-06-26T10:47:47;78.00;;;8.27;;
5221;SDS011;2630;52.036;8.514;2023-06-26T10:55:48;84.20;;;8.27;;
5221;SDS011;2630;52.036;8.514;2023-06-26T10:58:42;77.40;;;7.80;;
5221;SDS011;2630;52.036;8.514;2023-06-26T11:03:41;74.97;;;6.70;;
5221;SDS011;2630;52.036;8.514;2023-06-26T11:06:12;76.30;;;6.67;;
5221;SDS011;2630;52.036;8.514;2023-06-26T11:08:48;73.70;;;6.53;;
5221;SDS011;2630;52.036;8.514;2023-06-26T11:11:16;79.40;;;7.47;;
5221;SDS011;2630;52.036;8.514;2023-06-26T11:13:42;73.10;;;6.13;;
5221;SDS011;2630;52.036;8.514;2023-06-26T11:16:11;84.67;;;6.90;;
5221;SDS011;2630;52.036;8.514;2023-06-26T11:18:37;73.67;;;6.83;;
5221;SDS011;2630;52.036;8.514;2023-06-26T11:23:39;73.30;;;6.57;;
5221;SDS011;2630;52.036;8.514;2023-06-26T11:26:18;77.30;;;7.03;;
5221;SDS011;2630;52.036;8.514;2023-06-26T11:28:54;84.90;;;7.50;;
5221;SDS011;2630;52.036;8.514;2023-06-26T11:31:24;76.60;;;7.43;;
5221;SDS011;2630;52.036;8.514;2023-06-26T11:33:56;72.90;;;6.10;;
5221;SDS011;2630;52.036;8.514;2023-06-26T11:36:26;73.37;;;7.23;;
5221;SDS011;2630;52.036;8.514;2023-06-26T11:38:56;73.50;;;7.17;;
5221;SDS011;2630;52.036;8.514;2023-06-26T11:41:23;76.47;;;7.23;;
5221;SDS011;2630;52.036;8.514;2023-06-26T11:43:50;73.27;;;6.77;;
5221;SDS011;2630;52.036;8.514;2023-06-26T11:46:17;73.33;;;6.77;;
5221;SDS011;2630;52.036;8.514;2023-06-26T11:48:44;77.80;;;6.97;;
5221;SDS011;2630;52.036;8.514;2023-06-26T11:51:12;96.83;;;8.60;;
5221;SDS011;2630;52.036;8.514;2023-06-26T11:53:41;76.30;;;8.30;;
5221;SDS011;2630;52.036;8.514;2023-06-26T11:56:08;73.60;;;6.70;;
5221;SDS011;2630;52.036;8.514;2023-06-26T11:58:35;73.07;;;6.87;;
5221;SDS011;2630;52.036;8.514;2023-06-26T12:01:00;74.73;;;6.53;;
5221;SDS011;2630;52.036;8.514;2023-06-26T12:03:27;73.60;;;7.10;;
5221;SDS011;2630;52.036;8.514;2023-06-26T12:05:54;104.53;;;8.60;;
5221;SDS011;2630;52.036;8.514;2023-06-26T12:08:20;75.77;;;6.73;;
5221;SDS011;2630;52.036;8.514;2023-06-26T12:10:46;76.27;;;6.93;;
5221;SDS011;2630;52.036;8.514;2023-06-26T12:13:12;82.03;;;7.23;;
5221;SDS011;2630;52.036;8.514;2023-06-26T12:15:38;77.60;;;6.60;;
5221;SDS011;2630;52.036;8.514;2023-06-26T12:18:10;75.27;;;7.03;;
5221;SDS011;2630;52.036;8.514;2023-06-26T12:20:39;74.47;;;7.40;;
5221;SDS011;2630;52.036;8.514;2023-06-26T12:23:05;73.60;;;7.40;;
5221;SDS011;2630;52.036;8.514;2023-06-26T12:25:37;76.00;;;7.60;;
5221;SDS011;2630;52.036;8.514;2023-06-26T12:28:03;73.30;;;6.70;;
5221;SDS011;2630;52.036;8.514;2023-06-26T12:30:28;73.47;;;7.07;;
5221;SDS011;2630;52.036;8.514;2023-06-26T12:32:54;73.57;;;7.30;;
5221;SDS011;2630;52.036;8.514;2023-06-26T12:35:20;77.20;;;7.27;;
5221;SDS011;2630;52.036;8.514;2023-06-26T12:37:46;73.10;;;6.97;;
5221;SDS011;2630;52.036;8.514;2023-06-26T12:40:18;73.30;;;6.70;;
5221;SDS011;2630;52.036;8.514;2023-06-26T12:42:47;76.67;;;7.50;;
5221;SDS011;2630;52.036;8.514;2023-06-26T12:45:13;73.70;;;7.30;;
5221;SDS011;2630;52.036;8.514;2023-06-26T12:47:39;73.67;;;6.87;;
5221;SDS011;2630;52.036;8.514;2023-06-26T12:50:06;79.70;;;7.43;;
5221;SDS011;2630;52.036;8.514;2023-06-26T12:52:32;73.73;;;7.70;;
5221;SDS011;2630;52.036;8.514;2023-06-26T12:54:58;73.37;;;7.33;;
5221;SDS011;2630;52.036;8.514;2023-06-26T12:57:24;77.20;;;6.93;;
5221;SDS011;2630;52.036;8.514;2023-06-26T12:59:51;85.27;;;9.13;;
5221;SDS011;2630;52.036;8.514;2023-06-26T13:02:16;77.90;;;6.63;;
5221;SDS011;2630;52.036;8.514;2023-06-26T13:04:42;73.33;;;6.80;;
5221;SDS011;2630;52.036;8.514;2023-06-26T13:07:09;73.97;;;7.47;;
5221;SDS011;2630;52.036;8.514;2023-06-26T13:09:35;73.63;;;7.00;;
5221;SDS011;2630;52.036;8.514;2023-06-26T13:12:02;73.87;;;6.93;;
5221;SDS011;2630;52.036;8.514;2023-06-26T13:14:29;73.77;;;6.80;;
5221;SDS011;2630;52.036;8.514;2023-06-26T13:16:54;73.77;;;6.87;;
5221;SDS011;2630;52.036;8.514;2023-06-26T13:19:20;73.67;;;6.60;;
5221;SDS011;2630;52.036;8.514;2023-06-26T13:21:46;75.07;;;6.33;;
5221;SDS011;2630;52.036;8.514;2023-06-26T13:24:11;98.53;;;7.43;;
5221;SDS011;2630;52.036;8.514;2023-06-26T13:26:38;78.20;;;7.47;;
5221;SDS011;2630;52.036;8.514;2023-06-26T13:29:03;72.97;;;5.77;;
5221;SDS011;2630;52.036;8.514;2023-06-26T13:31:29;74.47;;;7.10;;
5221;SDS011;2630;52.036;8.514;2023-06-26T13:33:56;115.40;;;7.67;;
5221;SDS011;2630;52.036;8.514;2023-06-26T13:36:23;73.50;;;6.70;;
5221;SDS011;2630;52.036;8.514;2023-06-26T13:38:49;74.87;;;7.17;;
5221;SDS011;2630;52.036;8.514;2023-06-26T13:41:20;73.27;;;6.00;;
5221;SDS011;2630;52.036;8.514;2023-06-26T13:43:49;76.50;;;6.70;;
5221;SDS011;2630;52.036;8.514;2023-06-26T13:46:15;74.47;;;7.00;;
5221;SDS011;2630;52.036;8.514;2023-06-26T13:48:42;89.83;;;7.00;;
5221;SDS011;2630;52.036;8.514;2023-06-26T13:51:08;116.43;;;8.47;;
5221;SDS011;2630;52.036;8.514;2023-06-26T13:53:34;74.43;;;7.80;;
5221;SDS011;2630;52.036;8.514;2023-06-26T13:55:59;102.03;;;8.27;;
5221;SDS011;2630;52.036;8.514;2023-06-26T13:58:25;73.40;;;6.90;;
5221;SDS011;2630;52.036;8.514;2023-06-26T14:00:52;74.57;;;7.47;;
5221;SDS011;2630;52.036;8.514;2023-06-26T14:03:18;73.60;;;7.10;;
5221;SDS011;2630;52.036;8.514;2023-06-26T14:05:44;75.00;;;6.93;;
5221;SDS011;2630;52.036;8.514;2023-06-26T14:08:09;75.07;;;6.83;;
5221;SDS011;2630;52.036;8.514;2023-06-26T14:10:35;73.87;;;7.13;;
5221;SDS011;2630;52.036;8.514;2023-06-26T14:13:02;73.37;;;6.77;;
5221;SDS011;2630;52.036;8.514;2023-06-26T14:15:28;74.47;;;7.17;;
5221;SDS011;2630;52.036;8.514;2023-06-26T14:17:54;73.93;;;7.50;;
5221;SDS011;2630;52.036;8.514;2023-06-26T14:20:20;79.63;;;7.60;;
5221;SDS011;2630;52.036;8.514;2023-06-26T14:22:47;73.83;;;7.10;;
5221;SDS011;2630;52.036;8.514;2023-06-26T14:25:14;73.77;;;6.97;;
5221;SDS011;2630;52.036;8.514;2023-06-26T14:27:40;76.27;;;7.07;;
5221;SDS011;2630;52.036;8.514;2023-06-26T14:30:07;73.53;;;6.53;;
5221;SDS011;2630;52.036;8.514;2023-06-26T14:32:33;73.77;;;6.73;;
5221;SDS011;2630;52.036;8.514;2023-06-26T14:34:59;73.80;;;7.00;;
5221;SDS011;2630;52.036;8.514;2023-06-26T14:37:25;77.97;;;7.20;;
5221;SDS011;2630;52.036;8.514;2023-06-26T14:39:52;73.73;;;6.87;;
5221;SDS011;2630;52.036;8.514;2023-06-26T14:42:18;76.27;;;7.03;;
5221;SDS011;2630;52.036;8.514;2023-06-26T14:44:43;76.80;;;7.03;;
5221;SDS011;2630;52.036;8.514;2023-06-26T14:47:11;90.17;;;7.67;;
5221;SDS011;2630;52.036;8.514;2023-06-26T14:49:37;73.90;;;7.17;;
5221;SDS011;2630;52.036;8.514;2023-06-26T14:52:03;73.87;;;6.67;;
5221;SDS011;2630;52.036;8.514;2023-06-26T14:54:29;73.33;;;6.53;;
5221;SDS011;2630;52.036;8.514;2023-06-26T14:56:54;76.23;;;6.70;;
5221;SDS011;2630;52.036;8.514;2023-06-26T14:59:20;104.47;;;8.13;;
5221;SDS011;2630;52.036;8.514;2023-06-26T15:01:45;73.80;;;7.43;;
5221;SDS011;2630;52.036;8.514;2023-06-26T15:04:11;76.83;;;7.30;;
5221;SDS011;2630;52.036;8.514;2023-06-26T15:06:37;73.67;;;6.73;;
5221;SDS011;2630;52.036;8.514;2023-06-26T15:09:02;82.90;;;7.07;;
5221;SDS011;2630;52.036;8.514;2023-06-26T15:11:28;88.43;;;7.67;;
5221;SDS011;2630;52.036;8.514;2023-06-26T15:13:55;82.90;;;7.87;;
5221;SDS011;2630;52.036;8.514;2023-06-26T15:16:21;76.20;;;7.27;;